Relevés horaires Florennes (Belgique)


Relevés horaires à Florennes - Vendredi 02 Avr. 2021
Heure UTC1 Température [°C] Vent [km/h] Hum. [%] Pres.4 [hPa] Visi. [Km] Nébu. [octa] Préc.5 [mm] Cond.
2m. Res. Ros. Dir.2 Vit. Moy. Raf.3
23:00 4.3 1.6 0.1 N 11.1 -- 20.4 74 1027.2(0.3/3h) 20 -- -- --
22:00 4.4 2.6 -0.5 N 7.4 -- 18.5 70 1027(0.2/3h) 19 -- -- --
21:00 4.5 1.8 -0.1 N 11.1 -- 20.4 72 1027(1.0/3h) 19 -- -- --
20:00 4.6 2.3 -0.1 N 9.3 -- 18.5 71 1026.7(1.2/3h) 20 -- -- --
19:00 5.0 2.1 0.5 N 13.0 -- 20.4 73 1026.5(1.2/3h) 19 -- -- --
18:00 5.2 2.7 0.5 N 11.1 -- 20.4 72 1025.7(0.4/3h) 20 -- -- --
17:00 6.6 4 0.5 N 13.0 -- 20.4 65 1025.2(0.0/3h) 20 2/8 -- --
16:00 7.8 5.8 1.5 N 11.1 -- 20.4 64 1025(-0.7/3h) 20 2/8 -- --
15:00 8.4 6.5 1.4 N 11.1 -- 20.4 61 1024.7(-0.6/3h) 20 3/8 -- --
14:00 7.8 5.8 1.5 N 11.1 -- 18.5 64 1025(-0.6/3h) 18 4/8 -- --
13:00 6.4 4.1 2.2 N 11.1 -- 20.4 74 1026(0.1/3h) 16 6/8 -- --
12:00 6.7 4.5 2.3 N 11.1 -- 16.7 73 1025.7(0.1/3h) 15 5/8 -- --
11:00 5.8 3.4 1.7 NE 11.1 -- 16.7 75 1026(0.5/3h) 15 6/8 -- --
10:00 5.0 2.4 1.7 N 11.1 -- 16.7 79 1026(0.6/3h) 10 7/8 -- --
09:00 5.0 2.8 2.1 NE 9.3 -- 16.7 81 1025.9(0.9/3h) 10 7/8 -- --
08:00 4.3 2 2.2 NE 9.3 -- 16.7 86 1025.7(1.1/3h) 9 6/8 -- --
07:00 2.9 0.3 1.7 N 9.3 -- 14.8 92 1025.7(1.0/3h) 7 8/8 -- --
06:00 3.0 0 1.1 NE 11.1 -- 16.7 87 1025.2(0.4/3h) 7 8/8 -- --
05:00 2.9 0.3 1.2 NNE 9.3 -- 16.7 89 1024.7(0.0/3h) 8 -- -- --
04:00 3.0 0.4 1.9 NE 9.3 -- 14.8 92 1024.5(-0.1/3h) 5 -- -- --
03:00 3.5 1.5 2.2 NE 7.4 -- 13.0 91 1024.5(-0.1/3h) 5 -- -- --
02:00 4.0 2.7 2.1 NE 5.6 -- 11.1 87 1024.5(0.0/3h) 15 -- -- --
01:00 4.7 2.9 2.0 NNE 7.4 -- 13.0 83 1024.5(0.2/3h) 19 -- -- --
00:00 5.6 4 2.5 N 7.4 -- 14.8 80 1024.5(0.5/3h) 15 -- -- --

1 Coordinated Universal Time. Actuellement il est 17:00 locale et 15:00 UTC.

2 Le vent souffle depuis la direction indiquée vers la direction oposée.

3 Les rafales max. sont disponible 40 min après l'heure du relevé.

4 Pour les stations d'altitude (plus de 600m) le géopotentiel du niveau le plus proche de la pression obligatoire est indiqué.

5 Les stations disposant d'un diffuseur peuvent indiquer "trace". Cela signifie que des précipitations ont touchés le sol mais que la quantité est inférieure à 0.1 mm.

Récapitulatif de la journée
Température [°C] Vent [km/h] Ensoleillement4 [h] Precipitations totale5 [mm] Pression [Hpa]
Min1 Max.2 Moy.3 Max. Min Max.
2.8 9.0 0 20.4 0 h 0 min 0 1024.5 1027.2

1 Température minimale relevée entre 18:00 UTC la veille et 18:00 UTC le jour donné.

2 Température maximale relevée entre 06:00 UTC le jour donné et 06:00 UTC le lendemain.

3 Vent moyen de la journée basé sur les relevés horaires.

4 Ensoleillement en heures relevé entre 06:00 UTC la veille et 06:00 UTC le jour donné.

5 Précipitations totales tombées entre 06:00 UTC la jour donné et 06:00 UTC le lendemain.

Graphiques horaires